createdAt,value
2022-10-17T00:00:40.950Z,9.308913
2022-10-17T00:01:40.920Z,9.308888
2022-10-17T00:02:40.872Z,9.309114
2022-10-17T00:03:40.875Z,9.309043
2022-10-17T00:04:40.885Z,9.308973
2022-10-17T00:05:40.803Z,9.308825
2022-10-17T00:06:40.788Z,9.308887
2022-10-17T00:07:40.840Z,9.308858
2022-10-17T00:08:40.850Z,9.308837
2022-10-17T00:09:40.882Z,9.308844
2022-10-17T00:10:41.863Z,9.308920
2022-10-17T00:11:40.853Z,9.308893
2022-10-17T00:12:40.835Z,9.308897
2022-10-17T00:13:40.876Z,9.308950
2022-10-17T00:14:40.796Z,9.308912
2022-10-17T00:15:40.851Z,9.308931
2022-10-17T00:16:40.830Z,9.308992
2022-10-17T00:17:40.768Z,9.308983
2022-10-17T00:18:40.798Z,9.309114
2022-10-17T00:19:40.737Z,9.309160
2022-10-17T00:20:40.736Z,9.308994
2022-10-17T00:21:40.823Z,9.309003
2022-10-17T00:22:40.678Z,9.309104
2022-10-17T00:23:40.632Z,9.309120
2022-10-17T00:24:40.646Z,9.309003
2022-10-17T00:25:40.633Z,9.309080
2022-10-17T00:26:40.645Z,9.309150
2022-10-17T00:27:40.650Z,9.309130
2022-10-17T00:28:40.649Z,9.309133
2022-10-17T00:29:40.615Z,9.309144
2022-10-17T00:30:40.620Z,9.309106
2022-10-17T00:31:40.737Z,9.309074
2022-10-17T00:32:40.729Z,9.309080
2022-10-17T00:33:40.669Z,9.309078
2022-10-17T00:34:40.692Z,9.309073
2022-10-17T00:35:40.586Z,9.309018
2022-10-17T00:36:40.700Z,9.309074
2022-10-17T00:37:40.590Z,9.309142
2022-10-17T00:38:40.693Z,9.309137
2022-10-17T00:39:40.611Z,9.309199
2022-10-17T00:40:40.601Z,9.309192
2022-10-17T00:41:40.594Z,9.309098
2022-10-17T00:42:40.630Z,9.309128
2022-10-17T00:43:40.506Z,9.309110
2022-10-17T00:44:40.470Z,9.309064
2022-10-17T00:45:40.607Z,9.309042
2022-10-17T00:46:40.463Z,9.309053
2022-10-17T00:47:40.492Z,9.308997
2022-10-17T00:48:40.512Z,9.309005
2022-10-17T00:49:40.563Z,9.309039
2022-10-17T00:50:40.548Z,9.309092
2022-10-17T00:51:40.541Z,9.309066
2022-10-17T00:52:40.512Z,9.309036
2022-10-17T00:53:40.521Z,9.309054
2022-10-17T00:54:40.563Z,9.309060
2022-10-17T00:55:40.579Z,9.309077
2022-10-17T00:56:40.505Z,9.309126
2022-10-17T00:57:40.426Z,9.309114
2022-10-17T00:58:40.486Z,9.309093
2022-10-17T00:59:40.528Z,9.309046
2022-10-17T01:00:40.535Z,9.309077
2022-10-17T01:01:41.525Z,9.309040
2022-10-17T01:02:40.366Z,9.309172
2022-10-17T01:03:40.467Z,9.309157
2022-10-17T01:04:40.352Z,9.309128
2022-10-17T01:05:40.393Z,9.309197
2022-10-17T01:06:40.321Z,9.309160
2022-10-17T01:07:40.350Z,9.309062
2022-10-17T01:08:40.322Z,9.309052
2022-10-17T01:09:40.422Z,9.309042
2022-10-17T01:10:40.427Z,9.309042
2022-10-17T01:11:40.365Z,9.309082
2022-10-17T01:12:40.389Z,9.309114
2022-10-17T01:13:40.464Z,9.309178
2022-10-17T01:14:40.360Z,9.309096
2022-10-17T01:15:40.372Z,9.309091
2022-10-17T01:16:40.386Z,9.309110
2022-10-17T01:17:40.335Z,9.308970
2022-10-17T01:18:40.503Z,9.309072
2022-10-17T01:19:40.334Z,9.309075
2022-10-17T01:20:40.359Z,9.309080
2022-10-17T01:21:40.411Z,9.309132
2022-10-17T01:22:40.211Z,9.308968
2022-10-17T01:23:40.270Z,9.309118
2022-10-17T01:24:40.220Z,9.309121
2022-10-17T01:25:40.179Z,9.309159
2022-10-17T01:26:40.293Z,9.309214
2022-10-17T01:27:40.343Z,9.309149
2022-10-17T01:28:40.388Z,9.309093
2022-10-17T01:29:40.268Z,9.309056
2022-10-17T01:30:40.259Z,9.309149
2022-10-17T01:31:40.231Z,9.309150
2022-10-17T01:32:40.268Z,9.309189
2022-10-17T01:33:40.279Z,9.309202
2022-10-17T01:34:40.222Z,9.309100
2022-10-17T01:35:40.237Z,9.309197
2022-10-17T01:36:40.230Z,9.309238
2022-10-17T01:37:40.146Z,9.309225
2022-10-17T01:38:40.165Z,9.309239
2022-10-17T01:39:42.637Z,9.309105
2022-10-17T01:40:40.124Z,9.309033
2022-10-17T01:41:40.229Z,9.309047
2022-10-17T01:42:40.045Z,9.309114
2022-10-17T01:43:40.125Z,9.309132
2022-10-17T01:44:40.176Z,9.309105
2022-10-17T01:45:40.241Z,9.309128
2022-10-17T01:46:40.128Z,9.309141
2022-10-17T01:47:40.140Z,9.309179
2022-10-17T01:48:40.116Z,9.309125
2022-10-17T01:49:40.130Z,9.309127
2022-10-17T01:50:40.107Z,9.309037
2022-10-17T01:51:40.071Z,9.309056
2022-10-17T01:52:40.085Z,9.309071
2022-10-17T01:53:40.063Z,9.309101
2022-10-17T01:54:40.114Z,9.309146
2022-10-17T01:55:40.061Z,9.309150
2022-10-17T01:56:40.076Z,9.309117
2022-10-17T01:57:39.983Z,9.309134
2022-10-17T01:58:39.954Z,9.309086
2022-10-17T01:59:40.028Z,9.309085
2022-10-17T02:00:40.008Z,9.309047
2022-10-17T02:01:40.069Z,9.309188
2022-10-17T02:02:40.046Z,9.309099
2022-10-17T02:03:40.022Z,9.309183
2022-10-17T02:04:40.027Z,9.309150
2022-10-17T02:05:40.042Z,9.309097
2022-10-17T02:06:40.063Z,9.309127
2022-10-17T02:07:39.996Z,9.309140
2022-10-17T02:08:40.017Z,9.309134
2022-10-17T02:09:39.973Z,9.309097
2022-10-17T02:10:39.984Z,9.309176
2022-10-17T02:11:40.022Z,9.309074
2022-10-17T02:12:39.963Z,9.309087
2022-10-17T02:13:39.931Z,9.309085
2022-10-17T02:14:39.848Z,9.309205
2022-10-17T02:15:39.832Z,9.309167
2022-10-17T02:16:39.981Z,9.309199
2022-10-17T02:17:39.853Z,9.309123
2022-10-17T02:18:39.922Z,9.309151
2022-10-17T02:19:39.920Z,9.309123
2022-10-17T02:20:39.891Z,9.309077
2022-10-17T02:21:39.880Z,9.309055
2022-10-17T02:22:40.244Z,9.309027
2022-10-17T02:23:39.932Z,9.309007
2022-10-17T02:24:39.852Z,9.309065
2022-10-17T02:25:39.895Z,9.309056
2022-10-17T02:26:39.830Z,9.309072
2022-10-17T02:27:39.950Z,9.309109
2022-10-17T02:28:39.973Z,9.309072
2022-10-17T02:29:39.842Z,9.309116
2022-10-17T02:30:39.793Z,9.309030
2022-10-17T02:31:39.886Z,9.309049
2022-10-17T02:32:39.831Z,9.309044
2022-10-17T02:33:39.814Z,9.309101
2022-10-17T02:34:39.762Z,9.309079
2022-10-17T02:35:39.761Z,9.309091
2022-10-17T02:36:39.697Z,9.309105
2022-10-17T02:37:39.666Z,9.309021
2022-10-17T02:38:39.753Z,9.309022
2022-10-17T02:39:39.652Z,9.309056
2022-10-17T02:40:39.661Z,9.309058
2022-10-17T02:41:39.700Z,9.309036
2022-10-17T02:42:39.635Z,9.309120
2022-10-17T02:43:39.639Z,9.309112
2022-10-17T02:44:39.641Z,9.309093
2022-10-17T02:45:39.719Z,9.308999
2022-10-17T02:46:39.714Z,9.309061
2022-10-17T02:47:39.737Z,9.309039
2022-10-17T02:48:39.804Z,9.309054
2022-10-17T02:49:39.726Z,9.309015
2022-10-17T02:50:39.774Z,9.308977
2022-10-17T02:51:39.676Z,9.308999
2022-10-17T02:52:39.652Z,9.309011
2022-10-17T02:53:39.630Z,9.309056
2022-10-17T02:54:39.670Z,9.309005
2022-10-17T02:55:39.560Z,9.309002
2022-10-17T02:56:39.536Z,9.309082
2022-10-17T02:57:39.562Z,9.309032
2022-10-17T02:58:39.603Z,9.309007
2022-10-17T02:59:39.610Z,9.309042
2022-10-17T03:00:39.630Z,9.309031
2022-10-17T03:01:39.592Z,9.309010
2022-10-17T03:02:39.624Z,9.309003
2022-10-17T03:03:39.579Z,9.308975
2022-10-17T03:04:39.553Z,9.309065
2022-10-17T03:05:39.551Z,9.309078
2022-10-17T03:06:39.556Z,9.309017
2022-10-17T03:07:39.547Z,9.309029
2022-10-17T03:08:39.526Z,9.309028
2022-10-17T03:09:39.436Z,9.309022
2022-10-17T03:10:39.440Z,9.308978
2022-10-17T03:11:39.430Z,9.309004
2022-10-17T03:12:39.502Z,9.309010
2022-10-17T03:13:39.980Z,9.309075
2022-10-17T03:14:39.423Z,9.309026
2022-10-17T03:15:39.429Z,9.309112
2022-10-17T03:16:39.511Z,9.309104
2022-10-17T03:17:39.502Z,9.309007
2022-10-17T03:18:39.455Z,9.308979
2022-10-17T03:19:39.468Z,9.308964
2022-10-17T03:20:39.455Z,9.308934
2022-10-17T03:21:39.453Z,9.308883
2022-10-17T03:22:40.486Z,9.308988
2022-10-17T03:23:39.446Z,9.308954
2022-10-17T03:24:39.429Z,9.309058
2022-10-17T03:25:39.451Z,9.309008
2022-10-17T03:26:39.440Z,9.308972
2022-10-17T03:27:39.587Z,9.308935
2022-10-17T03:28:39.382Z,9.309011
2022-10-17T03:29:39.304Z,9.309093
2022-10-17T03:30:39.295Z,9.309118
2022-10-17T03:31:39.416Z,9.309093
2022-10-17T03:32:39.243Z,9.309134
2022-10-17T03:33:39.406Z,9.309086
2022-10-17T03:34:39.341Z,9.309094
2022-10-17T03:35:39.373Z,9.309140
2022-10-17T03:36:39.314Z,9.309074
2022-10-17T03:37:39.351Z,9.309065
2022-10-17T03:38:39.367Z,9.309074
2022-10-17T03:39:39.305Z,9.309078
2022-10-17T03:40:39.318Z,9.309097
2022-10-17T03:41:39.289Z,9.309006
2022-10-17T03:42:39.358Z,9.309052
2022-10-17T03:43:39.293Z,9.309031
2022-10-17T03:44:39.526Z,9.309076
2022-10-17T03:45:39.270Z,9.309078
2022-10-17T03:46:39.475Z,9.309094
2022-10-17T03:47:39.513Z,9.309119
2022-10-17T03:48:39.202Z,9.309079
2022-10-17T03:49:39.194Z,9.309088
2022-10-17T03:50:39.247Z,9.309069
2022-10-17T03:51:39.161Z,9.308979
2022-10-17T03:52:39.148Z,9.309153
2022-10-17T03:53:40.276Z,9.309136
2022-10-17T03:54:39.260Z,9.309088
2022-10-17T03:55:39.202Z,9.309070
2022-10-17T03:56:39.208Z,9.309022
2022-10-17T03:57:41.167Z,9.309041
2022-10-17T03:58:40.283Z,9.309053
2022-10-17T03:59:39.220Z,9.309069
2022-10-17T04:00:39.209Z,9.309096
2022-10-17T04:01:39.263Z,9.309092
2022-10-17T04:02:39.220Z,9.309117
2022-10-17T04:03:39.181Z,9.309081
2022-10-17T04:04:39.189Z,9.309130
2022-10-17T04:05:39.254Z,9.309072
2022-10-17T04:06:39.120Z,9.309069
2022-10-17T04:07:39.080Z,9.308983
2022-10-17T04:08:39.063Z,9.308961
2022-10-17T04:09:39.007Z,9.308986
2022-10-17T04:10:39.049Z,9.308964
2022-10-17T04:11:39.083Z,9.308882
2022-10-17T04:12:39.004Z,9.308948
2022-10-17T04:13:39.002Z,9.308978
2022-10-17T04:14:38.986Z,9.309011
2022-10-17T04:15:38.982Z,9.309065
2022-10-17T04:16:39.127Z,9.309059
2022-10-17T04:17:39.079Z,9.309082
2022-10-17T04:18:39.131Z,9.309017
2022-10-17T04:19:39.030Z,9.309015
2022-10-17T04:20:39.033Z,9.309067
2022-10-17T04:21:39.027Z,9.309034
2022-10-17T04:22:39.047Z,9.309041
2022-10-17T04:23:39.017Z,9.309070
2022-10-17T04:24:38.974Z,9.309044
2022-10-17T04:25:39.023Z,9.309040
2022-10-17T04:26:38.983Z,9.309020
2022-10-17T04:27:39.034Z,9.309033
2022-10-17T04:29:38.889Z,9.309032
2022-10-17T04:30:41.188Z,9.309055
2022-10-17T04:31:39.886Z,9.309093
2022-10-17T04:32:39.076Z,9.309057
2022-10-17T04:33:39.014Z,9.309040
2022-10-17T04:34:38.944Z,9.309112
2022-10-17T04:35:38.886Z,9.309044
2022-10-17T04:36:38.981Z,9.308974
2022-10-17T04:37:38.892Z,9.308977
2022-10-17T04:38:38.943Z,9.308974
2022-10-17T04:39:38.882Z,9.309099
2022-10-17T04:40:38.907Z,9.309122
2022-10-17T04:41:38.855Z,9.309125
2022-10-17T04:42:38.874Z,9.309109
2022-10-17T04:43:38.850Z,9.309155
2022-10-17T04:44:38.879Z,9.309144
2022-10-17T04:45:38.850Z,9.309109
2022-10-17T04:46:38.852Z,9.309146
2022-10-17T04:47:38.802Z,9.309140
2022-10-17T04:48:38.723Z,9.309085
2022-10-17T04:49:38.781Z,9.309042
2022-10-17T04:50:38.778Z,9.309128
2022-10-17T04:51:38.822Z,9.309117
2022-10-17T04:52:38.796Z,9.309025
2022-10-17T04:53:38.840Z,9.309021
2022-10-17T04:54:38.780Z,9.309120
2022-10-17T04:55:38.741Z,9.309108
2022-10-17T04:56:38.774Z,9.309032
2022-10-17T04:57:38.714Z,9.309040
2022-10-17T04:58:38.751Z,9.308968
2022-10-17T04:59:38.742Z,9.309093
2022-10-17T05:00:38.809Z,9.309067
2022-10-17T05:01:39.792Z,9.309076
2022-10-17T05:02:38.744Z,9.309031
2022-10-17T05:03:38.703Z,9.309053
2022-10-17T05:04:38.681Z,9.308976
2022-10-17T05:05:38.639Z,9.308997
2022-10-17T05:06:38.605Z,9.309012
2022-10-17T05:07:38.686Z,9.308846
2022-10-17T05:08:38.743Z,9.308913
2022-10-17T05:09:38.674Z,9.309022
2022-10-17T05:10:38.724Z,9.309085
2022-10-17T05:11:38.632Z,9.308967
2022-10-17T05:12:38.688Z,9.309003
2022-10-17T05:13:38.607Z,9.309109
2022-10-17T05:14:38.630Z,9.308960
2022-10-17T05:15:38.669Z,9.308852
2022-10-17T05:16:38.705Z,9.308953
2022-10-17T05:17:38.603Z,9.308946
2022-10-17T05:18:38.608Z,9.309144
2022-10-17T05:19:38.482Z,9.309028
2022-10-17T05:20:38.498Z,9.308979
2022-10-17T05:21:38.620Z,9.309019
2022-10-17T05:22:41.245Z,9.309016
2022-10-17T05:23:38.497Z,9.309029
2022-10-17T05:24:38.500Z,9.308983
2022-10-17T05:25:38.505Z,9.308914
2022-10-17T05:26:38.457Z,9.308932
2022-10-17T05:27:38.615Z,9.308957
2022-10-17T05:28:38.599Z,9.308988
2022-10-17T05:29:38.507Z,9.309035
2022-10-17T05:30:38.502Z,9.309125
2022-10-17T05:31:38.469Z,9.309171
2022-10-17T05:32:38.710Z,9.309172
2022-10-17T05:33:38.502Z,9.309213
2022-10-17T05:34:39.485Z,9.309299
2022-10-17T05:35:38.511Z,9.309222
2022-10-17T05:36:38.483Z,9.309176
2022-10-17T05:37:38.516Z,9.309035
2022-10-17T05:38:38.483Z,9.308960
2022-10-17T05:39:38.550Z,9.309149
2022-10-17T05:40:38.438Z,9.308998
2022-10-17T05:41:38.339Z,9.309026
2022-10-17T05:43:38.433Z,9.309135
2022-10-17T05:44:38.387Z,9.309134
2022-10-17T05:45:38.403Z,9.309104
2022-10-17T05:46:38.364Z,9.309093
2022-10-17T05:47:38.394Z,9.309090
2022-10-17T05:48:39.430Z,9.309089
2022-10-17T05:49:48.349Z,9.309111
2022-10-17T05:50:40.263Z,9.309102
2022-10-17T05:52:38.343Z,9.309148
2022-10-17T05:53:38.354Z,9.309162
2022-10-17T05:54:38.397Z,9.309103
2022-10-17T05:55:38.338Z,9.309080
2022-10-17T05:56:38.313Z,9.309098
2022-10-17T05:57:38.203Z,9.309089
2022-10-17T05:58:49.771Z,9.309138
2022-10-17T05:59:40.270Z,9.309146
2022-10-17T06:00:38.386Z,9.309069
2022-10-17T06:01:38.235Z,9.309055
2022-10-17T06:02:38.252Z,9.309053
2022-10-17T06:03:38.275Z,9.309074
2022-10-17T06:04:38.291Z,9.309048
2022-10-17T06:05:38.234Z,9.309054
2022-10-17T06:06:38.217Z,9.309041
2022-10-17T06:07:38.272Z,9.309043
2022-10-17T06:08:38.237Z,9.309031
2022-10-17T06:09:38.382Z,9.309109
2022-10-17T06:10:38.290Z,9.309136
2022-10-17T06:11:38.271Z,9.309129
2022-10-17T06:12:38.187Z,9.309097
2022-10-17T06:13:38.257Z,9.309037
2022-10-17T06:14:38.180Z,9.309113
2022-10-17T06:15:38.174Z,9.309042
2022-10-17T06:16:38.091Z,9.309048
2022-10-17T06:17:38.085Z,9.309146
2022-10-17T06:18:38.113Z,9.309091
2022-10-17T06:19:38.055Z,9.309060
2022-10-17T06:20:39.753Z,9.309070
2022-10-17T06:21:38.037Z,9.309155
2022-10-17T06:22:38.052Z,9.309192
2022-10-17T06:23:38.063Z,9.309116
2022-10-17T06:24:38.070Z,9.309071
2022-10-17T06:25:38.029Z,9.309068
2022-10-17T06:26:38.118Z,9.309080
2022-10-17T06:27:38.176Z,9.309106
2022-10-17T06:28:38.191Z,9.308987
2022-10-17T06:29:38.062Z,9.309017
2022-10-17T06:30:38.086Z,9.309024
2022-10-17T06:31:38.149Z,9.309197
2022-10-17T06:32:38.070Z,9.309207
2022-10-17T06:33:38.085Z,9.309157
2022-10-17T06:34:38.031Z,9.309118
2022-10-17T06:35:38.045Z,9.309018
2022-10-17T06:36:37.941Z,9.308946
2022-10-17T06:37:38.532Z,9.308909
2022-10-17T06:38:37.981Z,9.308949
2022-10-17T06:39:37.930Z,9.309138
2022-10-17T06:40:37.920Z,9.309092
2022-10-17T06:41:37.907Z,9.308991
2022-10-17T06:42:37.930Z,9.309073
2022-10-17T06:43:37.857Z,9.309077
2022-10-17T06:44:37.908Z,9.309046
2022-10-17T06:45:37.976Z,9.308995
2022-10-17T06:46:37.948Z,9.308983
2022-10-17T06:47:38.009Z,9.308967
2022-10-17T06:48:37.946Z,9.308977
2022-10-17T06:49:38.023Z,9.309027
2022-10-17T06:50:38.004Z,9.309003
2022-10-17T06:51:38.031Z,9.309020
2022-10-17T06:52:37.994Z,9.309115
2022-10-17T06:53:37.948Z,9.309204
2022-10-17T06:54:37.892Z,9.309024
2022-10-17T06:55:37.882Z,9.309012
2022-10-17T06:56:37.886Z,9.309098
2022-10-17T06:57:37.791Z,9.308949
2022-10-17T06:58:37.906Z,9.308975
2022-10-17T06:59:37.794Z,9.308969
2022-10-17T07:00:37.866Z,9.308991
2022-10-17T07:01:38.392Z,9.309103
2022-10-17T07:02:37.797Z,9.309004
2022-10-17T07:03:37.766Z,9.308964
2022-10-17T07:04:37.799Z,9.308992
2022-10-17T07:05:37.796Z,9.308986
2022-10-17T07:06:37.753Z,9.309038
2022-10-17T07:07:40.131Z,9.309028
2022-10-17T07:08:39.722Z,9.309001
2022-10-17T07:09:37.777Z,9.308965
2022-10-17T07:10:37.877Z,9.308973
2022-10-17T07:11:37.772Z,9.308993
2022-10-17T07:12:37.758Z,9.308957
2022-10-17T07:13:39.272Z,9.308993
2022-10-17T07:14:38.778Z,9.309016
2022-10-17T07:15:37.769Z,9.309028
2022-10-17T07:16:37.755Z,9.309064
2022-10-17T07:17:37.776Z,9.308989
2022-10-17T07:18:37.721Z,9.309044
2022-10-17T07:19:37.667Z,9.308997
2022-10-17T07:20:37.663Z,9.309141
2022-10-17T07:21:39.208Z,9.309129
2022-10-17T07:22:37.629Z,9.309093
2022-10-17T07:23:38.687Z,9.309094
2022-10-17T07:24:37.797Z,9.309083
2022-10-17T07:25:40.098Z,9.309081
2022-10-17T07:26:38.714Z,9.309016
2022-10-17T07:27:37.664Z,9.309023
2022-10-17T07:28:37.724Z,9.309001
2022-10-17T07:29:37.663Z,9.308961
2022-10-17T07:30:37.730Z,9.309001
2022-10-17T07:31:37.713Z,9.309009
2022-10-17T07:32:37.639Z,9.309058
2022-10-17T07:33:37.691Z,9.309015
2022-10-17T07:34:37.625Z,9.309049
2022-10-17T07:35:37.636Z,9.309077
2022-10-17T07:36:37.615Z,9.309062
2022-10-17T07:37:37.553Z,9.309079
2022-10-17T07:38:37.633Z,9.309059
2022-10-17T07:39:37.530Z,9.309004
2022-10-17T07:40:37.600Z,9.309082
2022-10-17T07:41:37.605Z,9.309092
2022-10-17T07:43:37.621Z,9.309027
2022-10-17T07:44:37.559Z,9.309041
2022-10-17T07:45:37.573Z,9.309037
2022-10-17T07:46:38.023Z,9.309081
2022-10-17T07:47:37.563Z,9.309063
2022-10-17T07:48:37.488Z,9.309061
2022-10-17T07:49:37.545Z,9.309137
2022-10-17T07:50:37.445Z,9.309086
2022-10-17T07:51:37.595Z,9.309094
2022-10-17T07:52:37.450Z,9.309073
2022-10-17T07:53:37.550Z,9.309014
2022-10-17T07:54:37.415Z,9.309016
2022-10-17T07:55:37.419Z,9.309077
2022-10-17T07:56:37.437Z,9.309080
2022-10-17T07:57:37.372Z,9.309114
2022-10-17T07:58:37.440Z,9.309083
2022-10-17T07:59:37.382Z,9.309049
2022-10-17T08:00:38.485Z,9.309160
2022-10-17T08:01:37.498Z,9.309095
2022-10-17T08:02:37.431Z,9.308986
2022-10-17T08:03:37.448Z,9.309026
2022-10-17T08:04:37.403Z,9.309042
2022-10-17T08:05:37.453Z,9.309044
2022-10-17T08:06:37.403Z,9.309013
2022-10-17T08:07:37.385Z,9.309022
2022-10-17T08:08:37.392Z,9.309031
2022-10-17T08:09:37.417Z,9.309052
2022-10-17T08:10:37.416Z,9.309080
2022-10-17T08:11:37.393Z,9.309067
2022-10-17T08:12:37.379Z,9.309067
2022-10-17T08:13:37.346Z,9.309066
2022-10-17T08:14:37.422Z,9.309180
2022-10-17T08:15:37.380Z,9.309173
2022-10-17T08:16:37.255Z,9.309125
2022-10-17T08:17:37.244Z,9.309118
2022-10-17T08:18:37.285Z,9.309062
2022-10-17T08:19:38.370Z,9.309038
2022-10-17T08:20:37.176Z,9.309064
2022-10-17T08:21:37.311Z,9.308957
2022-10-17T08:22:37.301Z,9.308931
2022-10-17T08:23:37.315Z,9.309118
2022-10-17T08:24:37.297Z,9.309120
2022-10-17T08:25:37.332Z,9.309135
2022-10-17T08:26:40.714Z,9.309029
2022-10-17T08:27:39.306Z,9.309042
2022-10-17T08:28:37.312Z,9.309183
2022-10-17T08:29:38.305Z,9.309188
2022-10-17T08:30:37.313Z,9.309192
2022-10-17T08:31:37.191Z,9.309206
2022-10-17T08:32:37.226Z,9.309230
2022-10-17T08:33:37.218Z,9.309243
2022-10-17T08:34:38.190Z,9.309233
2022-10-17T08:35:37.167Z,9.309111
2022-10-17T08:36:37.114Z,9.309064
2022-10-17T08:37:37.079Z,9.309028
2022-10-17T08:38:41.461Z,9.309051
2022-10-17T08:39:38.054Z,9.309080
2022-10-17T08:40:37.099Z,9.309114
2022-10-17T08:41:37.110Z,9.308984
2022-10-17T08:42:37.062Z,9.309001
2022-10-17T08:43:37.067Z,9.309114
2022-10-17T08:44:37.067Z,9.309101
2022-10-17T08:45:37.133Z,9.309103
2022-10-17T08:46:37.363Z,9.308953
2022-10-17T08:47:37.109Z,9.308930
2022-10-17T08:48:37.097Z,9.309127
2022-10-17T08:49:37.118Z,9.309121
2022-10-17T08:50:37.148Z,9.309127
2022-10-17T08:51:37.061Z,9.309145
2022-10-17T08:52:37.111Z,9.309067
2022-10-17T08:53:37.119Z,9.309104
2022-10-17T08:54:37.095Z,9.308999
2022-10-17T08:55:39.990Z,9.308946
2022-10-17T08:56:47.902Z,9.309061
2022-10-17T08:57:39.018Z,9.309093
2022-10-17T08:58:37.037Z,9.309175
2022-10-17T08:59:36.934Z,9.309175
2022-10-17T09:00:36.944Z,9.309189
2022-10-17T10:22:17.608Z,9.309121
2022-10-17T10:23:17.690Z,9.308902
2022-10-17T10:24:17.599Z,9.308669
2022-10-17T10:25:17.681Z,9.309118
2022-10-17T10:26:20.287Z,9.309217
2022-10-17T10:27:18.663Z,9.308942
2022-10-17T10:28:17.616Z,9.309009
2022-10-17T10:29:17.584Z,9.309127
2022-10-17T10:30:17.605Z,9.309043
2022-10-17T10:31:17.575Z,9.309063
2022-10-17T10:32:17.655Z,9.309236
2022-10-17T10:33:17.578Z,9.309108
2022-10-17T10:34:17.624Z,9.309085
2022-10-17T10:35:17.585Z,9.309206
2022-10-17T10:36:17.565Z,9.309084
2022-10-17T10:37:17.675Z,9.309159
2022-10-17T10:38:17.563Z,9.309127
2022-10-17T10:39:17.600Z,9.309111
2022-10-17T10:40:17.506Z,9.309086
2022-10-17T10:41:17.428Z,9.309122
2022-10-17T10:42:17.398Z,9.309105
2022-10-17T10:43:18.514Z,9.309120
2022-10-17T10:44:17.452Z,9.309152
2022-10-17T10:45:29.229Z,9.309174
2022-10-17T10:46:19.535Z,9.309357
2022-10-17T10:47:17.504Z,9.309246
2022-10-17T10:48:17.538Z,9.309191
2022-10-17T10:49:17.492Z,9.309181
2022-10-17T10:50:17.479Z,9.309183
2022-10-17T10:51:17.432Z,9.309212
2022-10-17T10:52:17.443Z,9.309129
2022-10-17T10:53:17.435Z,9.309201
2022-10-17T10:54:17.425Z,9.309205
2022-10-17T10:55:17.379Z,9.309042
2022-10-17T10:56:17.530Z,9.308967
2022-10-17T10:57:17.511Z,9.309106
2022-10-17T10:58:17.313Z,9.309145
2022-10-17T10:59:18.680Z,9.309143
2022-10-17T11:00:17.433Z,9.309118
2022-10-17T11:01:17.499Z,9.309143
2022-10-17T11:02:17.327Z,9.309136
2022-10-17T11:03:17.494Z,9.309134
2022-10-17T11:04:17.353Z,9.309099
2022-10-17T11:05:17.473Z,9.309035
2022-10-17T11:06:17.254Z,9.309042
2022-10-17T11:07:17.298Z,9.309046
2022-10-17T11:08:17.275Z,9.309090
2022-10-17T11:09:17.240Z,9.309067
2022-10-17T11:10:17.309Z,9.309095
2022-10-17T11:11:17.193Z,9.309108
2022-10-17T11:12:17.242Z,9.309134
2022-10-17T11:13:17.465Z,9.309181
2022-10-17T11:14:17.299Z,9.309166
2022-10-17T11:15:17.408Z,9.309282
2022-10-17T11:16:17.352Z,9.309223
2022-10-17T11:17:17.418Z,9.309167
2022-10-17T11:18:17.399Z,9.309156
2022-10-17T11:19:17.368Z,9.309218
2022-10-17T11:20:17.403Z,9.309195
2022-10-17T11:21:17.403Z,9.309125
2022-10-17T11:22:17.403Z,9.309065
2022-10-17T11:23:17.401Z,9.309005
2022-10-17T11:24:17.217Z,9.309197
2022-10-17T11:25:17.182Z,9.309139
2022-10-17T11:26:17.606Z,9.309098
2022-10-17T11:27:17.149Z,9.309012
2022-10-17T11:28:17.272Z,9.309033
2022-10-17T11:29:17.298Z,9.308993
2022-10-17T11:30:17.138Z,9.308996
2022-10-17T11:31:17.354Z,9.309011
2022-10-17T11:32:17.300Z,9.309046
2022-10-17T11:33:17.338Z,9.309135
2022-10-17T11:34:17.256Z,9.309139
2022-10-17T11:35:17.324Z,9.309163
2022-10-17T11:36:17.205Z,9.309049
2022-10-17T11:37:17.348Z,9.309113
2022-10-17T11:38:17.081Z,9.309007
2022-10-17T11:39:17.018Z,9.309032
2022-10-17T11:40:19.270Z,9.309044
2022-10-17T11:41:19.112Z,9.309119
2022-10-17T11:42:17.071Z,9.309148
2022-10-17T11:43:17.071Z,9.309155
2022-10-17T11:44:17.167Z,9.309170
2022-10-17T11:45:17.239Z,9.309164
2022-10-17T11:46:17.095Z,9.309133
2022-10-17T11:47:17.240Z,9.309053
2022-10-17T11:48:17.231Z,9.309039
2022-10-17T11:49:20.412Z,9.309104
2022-10-17T11:52:37.400Z,9.309056
2022-10-17T11:53:19.076Z,9.309033
2022-10-17T11:54:16.932Z,9.309099
2022-10-17T11:55:16.930Z,9.309113
2022-10-17T11:56:17.005Z,9.309134
2022-10-17T11:57:17.087Z,9.309104
2022-10-17T11:58:17.038Z,9.309104
2022-10-17T11:59:17.176Z,9.309083
2022-10-17T12:00:17.031Z,9.309078
2022-10-17T12:01:16.923Z,9.309093
2022-10-17T12:02:16.914Z,9.309138
2022-10-17T12:03:16.944Z,9.309072
2022-10-17T12:04:17.294Z,9.309104
2022-10-17T12:05:16.939Z,9.309119
2022-10-17T12:06:17.010Z,9.309166
2022-10-17T12:07:16.919Z,9.309094
2022-10-17T12:08:16.824Z,9.309089
2022-10-17T12:09:16.885Z,9.309093
2022-10-17T12:10:16.803Z,9.309133
2022-10-17T12:11:16.758Z,9.309178
2022-10-17T12:12:17.033Z,9.309145
2022-10-17T12:13:16.764Z,9.309127
2022-10-17T12:14:16.843Z,9.309072
2022-10-17T12:15:16.732Z,9.309092
2022-10-17T12:16:17.589Z,9.309091
2022-10-17T12:17:17.794Z,9.309081
2022-10-17T12:18:16.794Z,9.309037
2022-10-17T12:19:16.781Z,9.309095
2022-10-17T12:20:16.864Z,9.309075
2022-10-17T12:21:16.768Z,9.309026
2022-10-17T12:22:16.747Z,9.309034
2022-10-17T12:23:17.851Z,9.309010
2022-10-17T12:24:18.879Z,9.309031
2022-10-17T12:25:17.789Z,9.309033
2022-10-17T12:26:16.681Z,9.309032
2022-10-17T12:27:16.661Z,9.309081
2022-10-17T12:28:16.616Z,9.309028
2022-10-17T12:29:16.632Z,9.309116
2022-10-17T12:30:16.616Z,9.308985
2022-10-17T12:31:16.930Z,9.309048
2022-10-17T12:32:16.587Z,9.309080
2022-10-17T12:33:16.583Z,9.309060
2022-10-17T12:34:16.593Z,9.309048
2022-10-17T12:35:16.699Z,9.309035
2022-10-17T12:36:16.675Z,9.308982
2022-10-17T12:37:16.714Z,9.308940
2022-10-17T12:38:16.674Z,9.308959
2022-10-17T12:39:16.663Z,9.308992
2022-10-17T12:40:16.607Z,9.308971
2022-10-17T12:41:16.745Z,9.309017
2022-10-17T12:42:16.598Z,9.308998
2022-10-17T12:43:16.611Z,9.308936
2022-10-17T12:44:16.797Z,9.308917
2022-10-17T12:45:16.604Z,9.309052
2022-10-17T12:46:16.614Z,9.309062
2022-10-17T12:47:17.620Z,9.309031
2022-10-17T12:48:16.494Z,9.309037
2022-10-17T12:49:16.533Z,9.309026
2022-10-17T12:50:16.572Z,9.309011
2022-10-17T12:52:18.492Z,9.309001
2022-10-17T12:53:19.161Z,9.309031
2022-10-17T12:54:16.414Z,9.309041
2022-10-17T12:55:16.612Z,9.309022
2022-10-17T12:56:16.516Z,9.309082
2022-10-17T12:57:16.636Z,9.308983
2022-10-17T12:58:16.401Z,9.309021
2022-10-17T12:59:16.477Z,9.309047
2022-10-17T13:00:16.478Z,9.309085
2022-10-17T13:01:24.287Z,9.309077
2022-10-17T13:02:18.520Z,9.309077
2022-10-17T13:03:16.458Z,9.309095
2022-10-17T13:04:16.476Z,9.309043
2022-10-17T13:05:16.452Z,9.309014
2022-10-17T13:06:16.436Z,9.309025
2022-10-17T13:07:16.854Z,9.309047
2022-10-17T13:08:16.408Z,9.309072
2022-10-17T13:09:16.322Z,9.309027
2022-10-17T13:10:17.048Z,9.309032
2022-10-17T13:11:16.419Z,9.309021
2022-10-17T13:12:16.421Z,9.309013